createdAt,value
2019-04-16T00:00:31.013Z,9.78
2019-04-16T00:02:57.897Z,11.03
2019-04-16T00:05:48.274Z,9.53
2019-04-16T00:08:27.739Z,9.35
2019-04-16T00:11:11.657Z,9.83
2019-04-16T00:13:56.232Z,10.05
2019-04-16T00:16:21.681Z,9.95
2019-04-16T00:18:57.243Z,9.60
2019-04-16T00:21:38.476Z,9.58
2019-04-16T00:24:12.015Z,10.68
2019-04-16T00:26:37.478Z,9.28
2019-04-16T00:29:03.301Z,9.18
2019-04-16T00:31:28.852Z,9.37
2019-04-16T00:33:54.248Z,10.08
2019-04-16T00:36:19.701Z,9.60
2019-04-16T00:38:45.166Z,9.53
2019-04-16T00:41:10.662Z,10.10
2019-04-16T00:43:36.407Z,9.60
2019-04-16T00:46:02.012Z,9.50
2019-04-16T00:48:27.384Z,10.38
2019-04-16T00:50:52.854Z,9.80
2019-04-16T00:53:18.518Z,9.45
2019-04-16T00:55:45.052Z,9.48
2019-04-16T00:58:11.271Z,10.28
2019-04-16T01:00:36.750Z,9.30
2019-04-16T01:03:02.144Z,9.73
2019-04-16T01:05:27.557Z,9.38
2019-04-16T01:07:53.082Z,10.30
2019-04-16T01:10:18.654Z,9.65
2019-04-16T01:12:44.128Z,9.95
2019-04-16T01:15:09.951Z,10.20
2019-04-16T01:17:36.050Z,9.57
2019-04-16T01:20:02.424Z,10.37
2019-04-16T01:22:27.889Z,10.63
2019-04-16T01:24:53.265Z,9.78
2019-04-16T01:27:22.403Z,9.83
2019-04-16T01:29:48.224Z,10.08
2019-04-16T01:32:24.711Z,10.87
2019-04-16T01:34:58.137Z,9.68
2019-04-16T01:37:41.087Z,10.85
2019-04-16T01:40:07.874Z,10.50
2019-04-16T01:42:33.588Z,11.50
2019-04-16T01:45:00.708Z,10.13
2019-04-16T01:47:26.491Z,11.10
2019-04-16T01:49:51.835Z,11.90
2019-04-16T01:52:18.937Z,11.70
2019-04-16T01:54:44.709Z,11.37
2019-04-16T01:57:10.459Z,12.68
2019-04-16T01:59:36.471Z,11.23
2019-04-16T02:02:02.586Z,11.50
2019-04-16T02:04:28.059Z,10.90
2019-04-16T02:06:54.278Z,11.73
2019-04-16T02:09:22.705Z,11.97
2019-04-16T02:11:48.154Z,11.45
2019-04-16T02:14:16.806Z,12.13
2019-04-16T02:16:40.790Z,11.03
2019-04-16T02:19:21.409Z,10.53
2019-04-16T02:21:46.876Z,10.88
2019-04-16T02:24:12.587Z,11.00
2019-04-16T02:26:38.029Z,10.87
2019-04-16T02:29:03.564Z,11.63
2019-04-16T02:31:29.032Z,11.15
2019-04-16T02:33:54.488Z,10.55
2019-04-16T02:36:19.945Z,11.47
2019-04-16T02:38:52.621Z,10.90
2019-04-16T02:41:12.571Z,11.03
2019-04-16T02:43:41.044Z,11.30
2019-04-16T02:46:05.397Z,11.43
2019-04-16T02:48:31.117Z,10.97
2019-04-16T02:51:05.299Z,9.87
2019-04-16T02:53:48.995Z,10.17
2019-04-16T02:56:51.738Z,10.40
2019-04-16T02:59:20.503Z,11.40
2019-04-16T03:02:05.522Z,11.00
2019-04-16T03:04:37.306Z,11.27
2019-04-16T03:07:04.171Z,11.23
2019-04-16T03:09:30.170Z,10.60
2019-04-16T03:11:55.641Z,11.07
2019-04-16T03:14:21.065Z,11.30
2019-04-16T03:17:10.237Z,11.43
2019-04-16T03:19:39.187Z,11.30
2019-04-16T03:22:04.612Z,11.47
2019-04-16T03:24:30.048Z,11.63
2019-04-16T03:26:56.551Z,11.23
2019-04-16T03:29:22.013Z,11.77
2019-04-16T03:31:47.310Z,11.67
2019-04-16T03:34:12.909Z,11.73
2019-04-16T03:36:38.393Z,12.10
2019-04-16T03:39:05.883Z,12.37
2019-04-16T03:41:31.346Z,12.70
2019-04-16T03:43:56.704Z,12.97
2019-04-16T03:46:22.568Z,13.30
2019-04-16T03:48:48.011Z,11.90
2019-04-16T03:51:13.907Z,12.70
2019-04-16T03:53:39.557Z,12.97
2019-04-16T03:56:05.030Z,12.37
2019-04-16T03:58:30.465Z,12.03
2019-04-16T04:00:55.915Z,12.17
2019-04-16T04:03:25.829Z,12.83
2019-04-16T04:05:55.750Z,11.70
2019-04-16T04:08:21.112Z,12.13
2019-04-16T04:10:46.548Z,12.17
2019-04-16T04:13:17.478Z,12.60
2019-04-16T04:15:39.167Z,12.30
2019-04-16T04:18:04.583Z,12.50
2019-04-16T04:20:30.048Z,11.50
2019-04-16T04:22:57.055Z,12.63
2019-04-16T04:25:22.952Z,11.70
2019-04-16T04:27:48.241Z,11.83
2019-04-16T04:30:14.168Z,11.37
2019-04-16T04:32:39.851Z,11.80
2019-04-16T04:35:05.450Z,12.17
2019-04-16T04:37:31.952Z,11.37
2019-04-16T04:39:57.526Z,12.10
2019-04-16T04:42:25.626Z,11.97
2019-04-16T04:44:50.111Z,10.93
2019-04-16T04:47:19.381Z,12.83
2019-04-16T04:49:42.765Z,11.67
2019-04-16T04:52:08.279Z,13.07
2019-04-16T04:54:33.660Z,11.83
2019-04-16T04:57:00.227Z,11.90
2019-04-16T04:59:26.119Z,12.63
2019-04-16T05:01:51.560Z,11.83
2019-04-16T05:04:54.454Z,11.80
2019-04-16T05:07:20.153Z,12.43
2019-04-16T05:09:45.830Z,12.60
2019-04-16T05:12:11.312Z,12.37
2019-04-16T05:14:39.398Z,12.37
2019-04-16T05:17:06.526Z,12.80
2019-04-16T05:19:31.983Z,12.37
2019-04-16T05:21:57.429Z,12.53
2019-04-16T05:24:22.922Z,11.70
2019-04-16T05:26:48.263Z,13.13
2019-04-16T05:29:17.557Z,11.90
2019-04-16T05:31:42.407Z,12.13
2019-04-16T05:34:07.860Z,12.82
2019-04-16T05:36:33.155Z,13.50
2019-04-16T05:38:58.570Z,12.33
2019-04-16T05:41:24.188Z,12.67
2019-04-16T05:43:49.585Z,12.33
2019-04-16T05:46:15.263Z,12.37
2019-04-16T05:48:42.764Z,13.13
2019-04-16T05:51:08.809Z,13.00
2019-04-16T05:53:37.404Z,11.80
2019-04-16T05:56:10.502Z,11.73
2019-04-16T05:58:36.251Z,10.90
2019-04-16T06:01:16.683Z,13.33
2019-04-16T06:03:42.487Z,13.53
2019-04-16T06:06:07.980Z,12.10
2019-04-16T06:08:33.432Z,12.20
2019-04-16T06:10:58.907Z,13.07
2019-04-16T06:13:45.615Z,13.40
2019-04-16T06:16:31.009Z,13.00
2019-04-16T06:19:18.009Z,13.57
2019-04-16T06:22:02.366Z,13.63
2019-04-16T06:24:53.503Z,12.87
2019-04-16T06:27:34.553Z,13.23
2019-04-16T06:30:18.939Z,12.73
2019-04-16T06:32:49.073Z,13.30
2019-04-16T06:35:43.121Z,13.40
2019-04-16T06:38:14.542Z,13.40
2019-04-16T06:40:42.908Z,12.90
2019-04-16T06:43:27.328Z,12.93
2019-04-16T06:46:14.854Z,13.98
2019-04-16T06:48:54.309Z,12.73
2019-04-16T06:51:33.728Z,13.57
2019-04-16T06:54:36.482Z,13.53
2019-04-16T06:57:30.414Z,13.73
2019-04-16T07:00:20.652Z,13.17
2019-04-16T07:03:05.286Z,12.50
2019-04-16T07:05:45.553Z,13.22
2019-04-16T07:08:41.646Z,12.80
2019-04-16T07:11:05.685Z,13.08
2019-04-16T07:13:31.480Z,13.77
2019-04-16T07:15:57.747Z,12.10
2019-04-16T07:18:23.487Z,12.97
2019-04-16T07:20:49.336Z,12.25
2019-04-16T07:23:14.896Z,12.47
2019-04-16T07:25:43.107Z,12.57
2019-04-16T07:28:25.676Z,12.07
2019-04-16T07:31:16.563Z,12.43
2019-04-16T07:33:57.694Z,12.70
2019-04-16T07:36:48.390Z,13.05
2019-04-16T07:39:30.126Z,13.50
2019-04-16T07:42:10.715Z,14.20
2019-04-16T07:44:39.313Z,13.55
2019-04-16T07:47:19.730Z,14.20
2019-04-16T07:50:00.019Z,13.95
2019-04-16T07:52:32.144Z,12.82
2019-04-16T07:55:26.511Z,13.10
2019-04-16T07:57:52.560Z,13.03
2019-04-16T08:00:18.265Z,14.35
2019-04-16T08:02:43.730Z,13.25
2019-04-16T08:05:09.844Z,13.60
2019-04-16T08:07:35.366Z,13.48
2019-04-16T08:10:02.819Z,14.05
2019-04-16T08:12:30.495Z,14.75
2019-04-16T08:14:55.195Z,13.48
2019-04-16T08:17:20.700Z,14.28
2019-04-16T08:19:48.975Z,13.50
2019-04-16T08:22:15.779Z,13.30
2019-04-16T08:24:44.496Z,13.35
2019-04-16T08:27:17.987Z,12.60
2019-04-16T08:29:39.296Z,13.60
2019-04-16T08:32:04.821Z,13.45
2019-04-16T08:34:30.294Z,15.23
2019-04-16T08:36:55.738Z,13.90
2019-04-16T08:39:21.182Z,13.00
2019-04-16T08:41:52.068Z,14.10
2019-04-16T08:44:14.388Z,14.40
2019-04-16T08:46:40.318Z,13.08
2019-04-16T08:49:06.611Z,12.75
2019-04-16T08:51:36.928Z,13.88
2019-04-16T08:53:59.533Z,14.40
2019-04-16T08:56:24.996Z,13.18
2019-04-16T08:58:50.468Z,14.47
2019-04-16T09:01:23.348Z,14.33
2019-04-16T09:03:46.499Z,14.13
2019-04-16T09:06:13.544Z,14.93
2019-04-16T09:08:56.527Z,14.20
2019-04-16T09:11:23.812Z,14.83
2019-04-16T09:13:54.127Z,14.38
2019-04-16T09:16:19.752Z,14.73
2019-04-16T09:18:59.654Z,14.87
2019-04-16T09:21:27.819Z,14.87
2019-04-16T09:24:10.063Z,15.05
2019-04-16T09:26:43.756Z,14.47
2019-04-16T09:29:26.672Z,15.63
2019-04-16T09:32:12.528Z,14.68
2019-04-16T09:35:09.728Z,14.80
2019-04-16T09:37:49.177Z,14.28
2019-04-16T09:40:48.896Z,15.05
2019-04-16T09:43:18.189Z,14.40
2019-04-16T09:45:43.984Z,14.60
2019-04-16T09:48:09.403Z,15.90
2019-04-16T09:50:35.174Z,14.65
2019-04-16T09:53:01.991Z,15.50
2019-04-16T09:55:27.583Z,16.12
2019-04-16T09:57:53.482Z,16.62
2019-04-16T10:00:26.188Z,16.12
2019-04-16T10:02:55.056Z,15.43
2019-04-16T10:05:19.775Z,16.35
2019-04-16T10:07:45.205Z,16.40
2019-04-16T10:10:10.857Z,16.17
2019-04-16T10:12:36.195Z,15.30
2019-04-16T10:15:01.661Z,16.60
2019-04-16T10:17:27.124Z,15.75
2019-04-16T10:19:52.591Z,15.00
2019-04-16T10:22:18.660Z,14.58
2019-04-16T10:25:15.366Z,16.17
2019-04-16T10:27:43.330Z,15.43
2019-04-16T10:30:30.094Z,15.78
2019-04-16T10:32:55.457Z,15.98
2019-04-16T10:35:21.112Z,14.60
2019-04-16T10:37:46.613Z,15.55
2019-04-16T10:40:19.373Z,16.75
2019-04-16T10:43:02.579Z,16.57
2019-04-16T10:45:36.660Z,17.10
2019-04-16T10:48:20.040Z,16.02
2019-04-16T10:51:05.242Z,16.90
2019-04-16T10:53:48.233Z,15.60
2019-04-16T10:56:31.556Z,15.88
2019-04-16T10:59:04.891Z,14.63
2019-04-16T11:01:44.241Z,16.93
2019-04-16T11:04:28.010Z,16.30
2019-04-16T11:06:54.385Z,16.93
2019-04-16T11:09:19.961Z,14.95
2019-04-16T11:11:45.565Z,15.53
2019-04-16T11:14:11.066Z,14.33
2019-04-16T11:16:37.472Z,15.38
2019-04-16T11:19:02.974Z,14.55
2019-04-16T11:21:28.346Z,13.38
2019-04-16T11:23:53.760Z,12.70
2019-04-16T11:26:19.383Z,12.82
2019-04-16T11:28:44.878Z,12.13
2019-04-16T11:31:16.094Z,12.75
2019-04-16T11:33:41.605Z,12.45
2019-04-16T11:36:18.846Z,12.50
2019-04-16T11:38:34.560Z,11.63
2019-04-16T11:41:03.189Z,11.78
2019-04-16T11:43:29.103Z,11.90
2019-04-16T11:45:55.139Z,11.63
2019-04-16T11:48:20.712Z,12.37
2019-04-16T11:50:46.447Z,13.03
2019-04-16T11:53:12.326Z,11.97
2019-04-16T11:55:37.759Z,11.30
2019-04-16T11:58:05.539Z,10.90
2019-04-16T12:00:54.288Z,10.98
2019-04-16T12:03:25.448Z,8.93
2019-04-16T12:06:10.445Z,9.90
2019-04-16T12:08:54.265Z,8.43
2019-04-16T12:11:30.780Z,9.58
2019-04-16T12:14:12.587Z,9.13
2019-04-16T12:16:56.011Z,9.78
2019-04-16T12:19:55.878Z,9.13
2019-04-16T12:22:28.496Z,8.60
2019-04-16T12:25:12.143Z,8.25
2019-04-16T12:27:55.343Z,8.13
2019-04-16T12:30:52.282Z,8.20
2019-04-16T12:33:33.734Z,7.75
2019-04-16T12:36:24.563Z,8.05
2019-04-16T12:39:07.850Z,8.95
2019-04-16T12:41:40.072Z,9.55
2019-04-16T12:44:24.506Z,8.30
2019-04-16T12:47:12.703Z,8.18
2019-04-16T12:49:54.774Z,7.40
2019-04-16T12:52:45.218Z,7.67
2019-04-16T12:55:31.460Z,8.00
2019-04-16T12:58:02.342Z,7.92
2019-04-16T13:00:36.410Z,8.50
2019-04-16T13:03:19.735Z,8.05
2019-04-16T13:06:07.435Z,8.73
2019-04-16T13:08:53.910Z,9.73
2019-04-16T13:11:40.490Z,11.08
2019-04-16T13:14:28.956Z,10.90
2019-04-16T13:17:06.761Z,10.35
2019-04-16T13:19:47.011Z,11.03
2019-04-16T13:22:12.844Z,11.05
2019-04-16T13:24:47.570Z,11.28
2019-04-16T13:27:18.351Z,11.80
2019-04-16T13:29:43.752Z,10.70
2019-04-16T13:32:09.439Z,11.65
2019-04-16T13:34:35.291Z,10.50
2019-04-16T13:37:01.191Z,10.20
2019-04-16T13:39:31.275Z,12.55
2019-04-16T13:41:56.888Z,12.18
2019-04-16T13:44:24.511Z,11.33
2019-04-16T13:46:50.259Z,13.28
2019-04-16T13:49:24.212Z,12.85
2019-04-16T13:51:48.530Z,11.63
2019-04-16T13:54:27.618Z,13.00
2019-04-16T13:56:57.386Z,14.70
2019-04-16T13:59:47.885Z,14.75
2019-04-16T14:02:28.602Z,15.10
2019-04-16T14:04:54.088Z,15.00
2019-04-16T14:07:19.688Z,15.83
2019-04-16T14:09:45.128Z,16.30
2019-04-16T14:12:10.623Z,16.00
2019-04-16T14:14:36.189Z,15.40
2019-04-16T14:17:09.337Z,16.02
2019-04-16T14:19:29.075Z,13.93
2019-04-16T14:21:54.645Z,12.35
2019-04-16T14:24:20.488Z,11.22
2019-04-16T14:26:45.971Z,14.05
2019-04-16T14:29:11.497Z,11.95
2019-04-16T14:31:36.967Z,12.55
2019-04-16T14:34:07.907Z,11.20
2019-04-16T14:36:33.594Z,10.45
2019-04-16T14:39:07.037Z,9.30
2019-04-16T14:41:30.240Z,8.20
2019-04-16T14:44:03.339Z,8.90
2019-04-16T14:46:29.162Z,9.15
2019-04-16T14:48:54.583Z,8.50
2019-04-16T14:51:20.206Z,9.90
2019-04-16T14:53:57.857Z,10.20
2019-04-16T14:56:44.308Z,10.00
2019-04-16T14:59:30.244Z,9.30
2019-04-16T15:02:06.849Z,9.48
2019-04-16T15:04:58.174Z,9.68
2019-04-16T15:07:43.992Z,10.15
2019-04-16T15:10:40.740Z,9.88
2019-04-16T15:13:32.500Z,10.03
2019-04-16T15:16:21.196Z,9.75
2019-04-16T15:19:08.363Z,9.83
2019-04-16T15:22:04.722Z,8.88
2019-04-16T15:24:46.458Z,9.73
2019-04-16T15:27:51.348Z,9.15
2019-04-16T15:30:32.696Z,8.58
2019-04-16T15:33:44.548Z,8.58
2019-04-16T15:36:18.528Z,9.60
2019-04-16T15:39:19.200Z,9.53
2019-04-16T15:42:19.774Z,9.83
2019-04-16T15:44:56.328Z,9.68
2019-04-16T15:48:07.834Z,9.38
2019-04-16T15:50:58.645Z,9.58
2019-04-16T15:53:47.715Z,10.05
2019-04-16T15:56:22.483Z,9.88
2019-04-16T15:59:03.970Z,9.73
2019-04-16T16:01:36.100Z,9.60
2019-04-16T16:04:32.001Z,9.50
2019-04-16T16:07:02.864Z,9.65
2019-04-16T16:09:48.071Z,9.18
2019-04-16T16:12:15.976Z,9.88
2019-04-16T16:14:41.503Z,9.18
2019-04-16T16:17:07.315Z,9.30
2019-04-16T16:19:32.809Z,9.10
2019-04-16T16:21:58.728Z,9.63
2019-04-16T16:24:24.489Z,9.38
2019-04-16T16:26:50.559Z,9.60
2019-04-16T16:29:17.163Z,9.35
2019-04-16T16:31:42.894Z,9.28
2019-04-16T16:34:09.542Z,9.40
2019-04-16T16:36:36.566Z,8.63
2019-04-16T16:39:02.823Z,7.72
2019-04-16T16:41:28.920Z,6.87
2019-04-16T16:43:54.372Z,6.05
2019-04-16T16:46:56.577Z,6.05
2019-04-16T16:49:16.176Z,5.87
2019-04-16T16:51:51.372Z,5.80
2019-04-16T16:54:22.741Z,5.80
2019-04-16T16:57:01.971Z,5.87
2019-04-16T16:59:38.578Z,5.70
2019-04-16T17:02:29.153Z,5.50
2019-04-16T17:04:55.198Z,5.55
2019-04-16T17:07:21.499Z,5.03
2019-04-16T17:09:48.260Z,6.17
2019-04-16T17:12:13.899Z,5.30
2019-04-16T17:14:39.507Z,5.10
2019-04-16T17:17:13.896Z,5.03
2019-04-16T17:19:34.117Z,4.87
2019-04-16T17:22:00.578Z,4.50
2019-04-16T17:24:26.824Z,4.37
2019-04-16T17:26:52.540Z,4.50
2019-04-16T17:29:18.352Z,4.00
2019-04-16T17:31:43.897Z,3.55
2019-04-16T17:34:09.405Z,3.45
2019-04-16T17:36:35.609Z,3.67
2019-04-16T17:39:01.443Z,3.65
2019-04-16T17:41:31.930Z,2.90
2019-04-16T17:44:04.102Z,4.10
2019-04-16T17:46:51.873Z,3.37
2019-04-16T17:49:32.406Z,3.42
2019-04-16T17:52:11.014Z,3.52
2019-04-16T17:54:39.961Z,3.37
2019-04-16T17:57:23.353Z,3.33
2019-04-16T18:00:20.376Z,3.10
2019-04-16T18:03:04.712Z,2.77
2019-04-16T18:05:49.577Z,3.15
2019-04-16T18:08:42.413Z,2.77
2019-04-16T18:11:13.985Z,2.55
2019-04-16T18:14:04.653Z,2.30
2019-04-16T18:16:50.092Z,2.20
2019-04-16T18:19:24.825Z,2.30
2019-04-16T18:22:04.412Z,2.15
2019-04-16T18:24:45.312Z,2.47
2019-04-16T18:27:33.054Z,1.77
2019-04-16T18:30:36.713Z,2.00
2019-04-16T18:33:20.146Z,1.67
2019-04-16T18:36:09.231Z,1.70
2019-04-16T18:38:52.936Z,2.30
2019-04-16T18:41:39.056Z,2.00
2019-04-16T18:44:29.175Z,1.77
2019-04-16T18:47:17.267Z,1.42
2019-04-16T18:49:44.378Z,1.47
2019-04-16T18:52:10.253Z,1.27
2019-04-16T18:54:36.707Z,1.35
2019-04-16T18:57:02.854Z,1.57
2019-04-16T18:59:29.312Z,1.95
2019-04-16T19:02:00.914Z,1.57
2019-04-16T19:04:27.298Z,1.57
2019-04-16T19:06:53.021Z,1.37
2019-04-16T19:09:21.041Z,1.40
2019-04-16T19:11:47.572Z,1.42
2019-04-16T19:14:14.033Z,1.40
2019-04-16T19:16:39.938Z,1.40
2019-04-16T19:19:05.941Z,1.90
2019-04-16T19:21:32.965Z,1.75
2019-04-16T19:23:59.158Z,1.70
2019-04-16T19:26:25.345Z,1.70
2019-04-16T19:28:51.153Z,1.60
2019-04-16T19:31:22.443Z,1.35
2019-04-16T19:33:45.963Z,1.40
2019-04-16T19:36:12.627Z,1.60
2019-04-16T19:38:39.461Z,1.52
2019-04-16T19:41:06.430Z,2.10
2019-04-16T19:43:35.311Z,1.50
2019-04-16T19:46:02.946Z,1.40
2019-04-16T19:48:35.399Z,1.35
2019-04-16T19:50:55.479Z,1.42
2019-04-16T19:53:21.364Z,1.57
2019-04-16T19:55:48.331Z,1.60
2019-04-16T19:58:14.098Z,1.25
2019-04-16T20:00:40.436Z,1.37
2019-04-16T20:03:06.946Z,1.40
2019-04-16T20:05:33.531Z,1.40
2019-04-16T20:07:59.444Z,1.40
2019-04-16T20:10:25.660Z,1.57
2019-04-16T20:12:51.752Z,1.60
2019-04-16T20:15:17.649Z,1.50
2019-04-16T20:17:44.553Z,1.77
2019-04-16T20:20:10.702Z,2.02
2019-04-16T20:22:36.562Z,1.70
2019-04-16T20:25:02.356Z,1.55
2019-04-16T20:27:28.576Z,1.85
2019-04-16T20:29:54.445Z,1.60
2019-04-16T20:32:20.240Z,1.92
2019-04-16T20:34:46.307Z,1.98
2019-04-16T20:37:12.223Z,1.90
2019-04-16T20:39:40.743Z,1.90
2019-04-16T20:42:06.096Z,1.95
2019-04-16T20:44:32.007Z,1.70
2019-04-16T20:46:58.324Z,2.00
2019-04-16T20:49:25.540Z,1.90
2019-04-16T20:51:51.714Z,1.85
2019-04-16T20:54:17.242Z,1.80
2019-04-16T20:56:43.001Z,1.75
2019-04-16T20:59:08.496Z,2.00
2019-04-16T21:01:37.678Z,1.90
2019-04-16T21:04:05.273Z,1.82
2019-04-16T21:06:29.131Z,2.15
2019-04-16T21:08:57.141Z,1.60
2019-04-16T21:11:22.151Z,1.80
2019-04-16T21:13:49.966Z,2.00
2019-04-16T21:16:14.840Z,2.27
2019-04-16T21:18:43.552Z,2.05
2019-04-16T21:21:09.285Z,2.15
2019-04-16T21:23:35.512Z,2.08
2019-04-16T21:26:01.122Z,1.95
2019-04-16T21:28:48.504Z,1.90
2019-04-16T21:31:19.355Z,1.90
2019-04-16T21:33:55.791Z,2.25
2019-04-16T21:36:33.867Z,1.95
2019-04-16T21:39:10.811Z,1.80
2019-04-16T21:41:36.562Z,2.12
2019-04-16T21:44:02.155Z,1.90
2019-04-16T21:46:27.756Z,2.25
2019-04-16T21:49:00.872Z,2.10
2019-04-16T21:51:26.789Z,2.00
2019-04-16T21:53:52.633Z,2.10
2019-04-16T21:56:18.184Z,2.10
2019-04-16T21:58:46.601Z,2.12
2019-04-16T22:01:19.660Z,1.98
2019-04-16T22:03:53.339Z,1.87
2019-04-16T22:06:20.213Z,1.92
2019-04-16T22:08:46.131Z,1.70
2019-04-16T22:11:12.590Z,1.90
2019-04-16T22:13:38.188Z,1.95
2019-04-16T22:16:03.817Z,2.00
2019-04-16T22:18:29.238Z,1.82
2019-04-16T22:20:54.684Z,1.82
2019-04-16T22:23:20.133Z,1.95
2019-04-16T22:25:45.499Z,2.20
2019-04-16T22:28:12.967Z,2.15
2019-04-16T22:30:38.582Z,2.65
2019-04-16T22:33:06.723Z,2.20
2019-04-16T22:35:31.940Z,2.50
2019-04-16T22:37:57.986Z,2.22
2019-04-16T22:40:34.477Z,2.85
2019-04-16T22:43:17.495Z,2.90
2019-04-16T22:45:54.128Z,2.62
2019-04-16T22:48:19.651Z,2.92
2019-04-16T22:50:45.286Z,2.52
2019-04-16T22:53:10.576Z,3.75
2019-04-16T22:55:36.421Z,2.92
2019-04-16T22:58:03.535Z,3.60
2019-04-16T23:00:44.355Z,3.45
2019-04-16T23:03:09.902Z,3.70
2019-04-16T23:05:35.364Z,3.77
2019-04-16T23:08:00.813Z,3.45
2019-04-16T23:10:26.271Z,3.72
2019-04-16T23:12:51.703Z,4.08
2019-04-16T23:15:17.073Z,4.83
2019-04-16T23:17:42.765Z,4.97
2019-04-16T23:20:09.820Z,4.30
2019-04-16T23:22:35.488Z,4.50
2019-04-16T23:25:00.956Z,4.65
2019-04-16T23:27:26.395Z,4.60
2019-04-16T23:29:51.840Z,4.92
2019-04-16T23:32:17.390Z,4.65
2019-04-16T23:34:42.811Z,4.17
2019-04-16T23:37:08.235Z,3.52
2019-04-16T23:39:36.449Z,4.20
2019-04-16T23:42:00.876Z,4.70
2019-04-16T23:44:34.798Z,4.42
2019-04-16T23:47:19.993Z,4.62
2019-04-16T23:49:58.497Z,3.90
2019-04-16T23:52:31.954Z,4.67
2019-04-16T23:55:04.322Z,4.42
2019-04-16T23:57:49.920Z,4.28
